createdAt,value
2023-01-05T00:01:09.224Z,9.00
2023-01-05T00:03:50.015Z,9.00
2023-01-05T00:06:31.069Z,9.00
2023-01-05T00:09:05.335Z,9.00
2023-01-05T00:11:58.061Z,9.00
2023-01-05T00:14:47.964Z,9.00
2023-01-05T00:17:38.673Z,9.00
2023-01-05T00:20:48.175Z,9.00
2023-01-05T00:23:27.200Z,9.00
2023-01-05T00:26:06.639Z,9.00
2023-01-05T00:28:50.473Z,9.00
2023-01-05T00:31:25.976Z,9.00
2023-01-05T00:34:13.201Z,9.00
2023-01-05T00:40:04.572Z,9.00
2023-01-05T00:42:32.962Z,9.00
2023-01-05T00:45:04.969Z,9.00
2023-01-05T00:47:39.314Z,9.00
2023-01-05T00:50:11.511Z,9.00
2023-01-05T00:52:43.945Z,9.10
2023-01-05T00:55:21.219Z,9.10
2023-01-05T00:57:56.859Z,9.10
2023-01-05T01:00:30.567Z,9.20
2023-01-05T01:03:01.273Z,9.30
2023-01-05T01:05:29.728Z,9.30
2023-01-05T01:08:03.989Z,9.30
2023-01-05T01:10:33.787Z,9.30
2023-01-05T01:13:10.253Z,9.30
2023-01-05T01:15:38.422Z,9.30
2023-01-05T01:18:09.534Z,9.30
2023-01-05T01:20:39.099Z,9.30
2023-01-05T01:23:11.437Z,9.30
2023-01-05T01:25:42.095Z,9.30
2023-01-05T01:28:10.217Z,9.30
2023-01-05T01:30:39.557Z,9.30
2023-01-05T01:33:07.605Z,9.20
2023-01-05T01:35:37.749Z,9.30
2023-01-05T01:38:06.002Z,9.30
2023-01-05T01:40:39.558Z,9.30
2023-01-05T01:43:13.793Z,9.20
2023-01-05T01:45:42.183Z,9.20
2023-01-05T01:48:14.859Z,9.20
2023-01-05T01:50:46.191Z,9.10
2023-01-05T01:53:19.445Z,9.10
2023-01-05T01:55:49.167Z,9.10
2023-01-05T01:58:19.972Z,9.10
2023-01-05T02:00:48.711Z,9.10
2023-01-05T02:03:16.829Z,9.10
2023-01-05T02:05:44.876Z,9.10
2023-01-05T02:08:14.532Z,9.10
2023-01-05T02:10:58.683Z,9.10
2023-01-05T02:13:41.073Z,9.10
2023-01-05T02:16:19.567Z,9.10
2023-01-05T02:19:33.632Z,9.10
2023-01-05T02:22:20.062Z,9.10
2023-01-05T02:25:13.111Z,9.10
2023-01-05T02:27:54.505Z,9.10
2023-01-05T02:31:06.939Z,9.10
2023-01-05T02:34:03.143Z,9.10
2023-01-05T02:36:38.124Z,9.00
2023-01-05T02:39:13.762Z,8.90
2023-01-05T02:41:48.254Z,8.90
2023-01-05T02:44:18.578Z,8.90
2023-01-05T02:47:00.923Z,8.90
2023-01-05T02:49:33.402Z,8.90
2023-01-05T02:52:08.286Z,8.90
2023-01-05T02:54:42.198Z,8.90
2023-01-05T02:57:16.936Z,9.00
2023-01-05T02:59:49.533Z,9.00
2023-01-05T03:02:53.421Z,8.90
2023-01-05T03:05:45.187Z,9.00
2023-01-05T03:08:32.043Z,9.00
2023-01-05T03:11:23.066Z,9.00
2023-01-05T03:14:25.685Z,9.00
2023-01-05T03:16:57.323Z,9.00
2023-01-05T03:19:40.499Z,9.00
2023-01-05T03:22:42.624Z,8.90
2023-01-05T03:25:31.586Z,9.00
2023-01-05T03:28:20.801Z,9.00
2023-01-05T03:31:17.117Z,9.00
2023-01-05T03:34:06.920Z,9.00
2023-01-05T03:36:42.237Z,8.90
2023-01-05T03:39:13.229Z,9.00
2023-01-05T03:41:44.222Z,9.00
2023-01-05T03:44:12.289Z,9.00
2023-01-05T03:46:41.992Z,9.00
2023-01-05T03:49:11.229Z,9.00
2023-01-05T03:51:46.604Z,9.00
2023-01-05T03:54:23.756Z,9.00
2023-01-05T03:57:06.543Z,9.00
2023-01-05T03:59:34.708Z,9.00
2023-01-05T04:02:05.232Z,9.00
2023-01-05T04:04:34.038Z,9.00
2023-01-05T04:07:05.222Z,9.00
2023-01-05T04:09:36.354Z,9.10
2023-01-05T04:12:05.118Z,9.10
2023-01-05T04:14:39.678Z,9.10
2023-01-05T04:17:07.611Z,9.10
2023-01-05T04:19:35.579Z,9.10
2023-01-05T04:22:03.539Z,9.10
2023-01-05T04:24:32.591Z,9.10
2023-01-05T04:27:03.402Z,9.10
2023-01-05T04:29:31.634Z,9.10
2023-01-05T04:32:01.277Z,9.20
2023-01-05T04:34:29.482Z,9.20
2023-01-05T04:37:25.488Z,9.10
2023-01-05T04:39:54.527Z,9.20
2023-01-05T04:42:25.109Z,9.20
2023-01-05T04:44:55.878Z,9.20
2023-01-05T04:47:23.820Z,9.20
2023-01-05T04:49:52.631Z,9.20
2023-01-05T04:52:20.606Z,9.20
2023-01-05T04:54:49.094Z,9.20
2023-01-05T04:57:17.375Z,9.20
2023-01-05T04:59:47.892Z,9.10
2023-01-05T05:02:16.080Z,9.10
2023-01-05T05:04:45.873Z,9.10
2023-01-05T05:07:14.651Z,9.10
2023-01-05T05:09:42.688Z,9.10
2023-01-05T05:12:11.935Z,9.10
2023-01-05T05:14:40.382Z,9.10
2023-01-05T05:17:11.826Z,9.00
2023-01-05T05:19:40.361Z,9.10
2023-01-05T05:22:09.446Z,9.10
2023-01-05T05:24:37.551Z,9.10
2023-01-05T05:27:05.725Z,9.00
2023-01-05T05:29:33.792Z,9.00
2023-01-05T05:32:01.786Z,9.00
2023-01-05T05:34:31.072Z,9.00
2023-01-05T05:37:00.016Z,9.00
2023-01-05T05:39:28.012Z,9.00
2023-01-05T05:41:55.885Z,9.00
2023-01-05T05:44:23.837Z,9.00
2023-01-05T05:46:51.736Z,9.10
2023-01-05T05:49:20.586Z,9.00
2023-01-05T05:51:49.805Z,9.00
2023-01-05T05:54:17.923Z,8.90
2023-01-05T05:56:45.800Z,9.00
2023-01-05T05:59:13.699Z,9.00
2023-01-05T06:01:41.777Z,9.00
2023-01-05T06:04:09.847Z,8.90
2023-01-05T06:06:38.802Z,8.80
2023-01-05T06:09:08.190Z,8.70
2023-01-05T06:11:36.411Z,8.70
2023-01-05T06:14:04.543Z,8.60
2023-01-05T06:16:32.557Z,8.60
2023-01-05T06:19:00.580Z,8.50
2023-01-05T06:21:29.331Z,8.40
2023-01-05T06:24:03.269Z,8.30
2023-01-05T06:26:32.682Z,8.20
2023-01-05T06:29:01.779Z,8.20
2023-01-05T06:31:29.849Z,8.10
2023-01-05T06:34:00.813Z,8.20
2023-01-05T06:36:28.968Z,8.10
2023-01-05T06:38:59.709Z,8.10
2023-01-05T06:41:27.639Z,8.10
2023-01-05T06:43:56.918Z,8.00
2023-01-05T06:46:29.803Z,8.00
2023-01-05T06:48:58.135Z,7.90
2023-01-05T06:51:26.294Z,7.80
2023-01-05T06:53:54.228Z,7.80
2023-01-05T06:56:22.187Z,7.70
2023-01-05T06:58:50.178Z,7.70
2023-01-05T07:01:19.693Z,7.70
2023-01-05T07:03:47.821Z,7.70
2023-01-05T07:06:22.524Z,7.70
2023-01-05T07:08:50.884Z,7.70
2023-01-05T07:11:18.916Z,7.70
2023-01-05T07:13:49.711Z,7.70
2023-01-05T07:16:21.202Z,7.60
2023-01-05T07:18:55.788Z,7.60
2023-01-05T07:21:35.717Z,7.50
2023-01-05T07:24:17.243Z,7.50
2023-01-05T07:26:50.154Z,7.50
2023-01-05T07:29:18.208Z,7.50
2023-01-05T07:31:52.570Z,7.50
2023-01-05T07:34:25.373Z,7.50
2023-01-05T07:36:57.405Z,7.50
2023-01-05T07:39:43.286Z,7.50
2023-01-05T07:42:11.630Z,7.60
2023-01-05T07:44:39.573Z,7.60
2023-01-05T07:47:18.153Z,7.60
2023-01-05T07:49:50.578Z,7.70
2023-01-05T07:52:38.100Z,7.70
2023-01-05T07:55:13.520Z,7.70
2023-01-05T07:57:41.549Z,7.80
2023-01-05T08:00:21.588Z,7.80
2023-01-05T08:02:53.996Z,7.90
2023-01-05T08:05:21.976Z,8.00
2023-01-05T08:07:51.677Z,7.90
2023-01-05T08:10:35.087Z,7.90
2023-01-05T08:13:27.670Z,8.00
2023-01-05T08:16:14.321Z,8.00
2023-01-05T08:19:04.228Z,8.00
2023-01-05T08:21:45.957Z,8.10
2023-01-05T08:24:21.933Z,8.10
2023-01-05T08:27:11.609Z,8.10
2023-01-05T08:29:42.211Z,8.10
2023-01-05T08:32:15.329Z,8.10
2023-01-05T08:34:55.273Z,8.10
2023-01-05T08:37:51.503Z,8.20
2023-01-05T08:40:46.790Z,8.20
2023-01-05T08:43:38.084Z,8.20
2023-01-05T08:49:19.101Z,8.30
2023-01-05T08:51:58.128Z,8.30
2023-01-05T08:54:27.313Z,8.30
2023-01-05T08:56:58.038Z,8.30
2023-01-05T08:59:36.552Z,8.30
2023-01-05T09:02:09.560Z,8.30
2023-01-05T09:04:37.841Z,8.30
2023-01-05T09:07:07.178Z,8.30
2023-01-05T09:09:35.096Z,8.20
2023-01-05T09:12:06.287Z,8.10
2023-01-05T09:14:34.352Z,8.10
2023-01-05T09:17:07.333Z,8.10
2023-01-05T09:19:36.320Z,8.00
2023-01-05T09:22:05.408Z,8.00
2023-01-05T09:24:39.649Z,8.00
2023-01-05T09:27:17.528Z,8.00
2023-01-05T09:29:53.667Z,8.00
2023-01-05T09:32:23.335Z,8.00
2023-01-05T09:34:51.419Z,8.00
2023-01-05T09:37:24.692Z,8.00
2023-01-05T09:39:53.931Z,8.10
2023-01-05T09:42:24.211Z,8.10
2023-01-05T09:44:59.050Z,8.10
2023-01-05T09:47:31.583Z,8.20
2023-01-05T09:50:14.342Z,8.20
2023-01-05T09:53:21.344Z,8.20
2023-01-05T09:55:55.336Z,8.30
2023-01-05T09:58:36.812Z,8.30
2023-01-05T10:01:14.331Z,8.30
2023-01-05T10:04:05.680Z,8.40
2023-01-05T10:13:31.824Z,8.50
2023-01-05T10:16:29.321Z,8.40
2023-01-05T10:19:04.886Z,8.50
2023-01-05T10:22:00.000Z,8.50
2023-01-05T10:24:44.980Z,8.50
2023-01-05T10:27:42.477Z,8.60
2023-01-05T10:30:28.616Z,8.50
2023-01-05T10:33:25.429Z,8.50
2023-01-05T10:36:04.086Z,8.50
2023-01-05T10:39:06.417Z,8.60
2023-01-05T10:41:42.484Z,8.50
2023-01-05T10:44:52.981Z,8.50
2023-01-05T10:47:24.327Z,8.50
2023-01-05T10:49:52.542Z,8.60
2023-01-05T10:52:22.571Z,8.50
2023-01-05T10:54:56.600Z,8.50
2023-01-05T10:57:48.944Z,8.60
2023-01-05T11:00:18.954Z,8.60
2023-01-05T11:03:01.573Z,8.60
2023-01-05T11:05:33.764Z,8.60
2023-01-05T11:08:04.447Z,8.70
2023-01-05T11:10:35.396Z,8.80
2023-01-05T11:13:06.565Z,8.90
2023-01-05T11:15:41.514Z,8.90
2023-01-05T11:18:25.654Z,9.00
2023-01-05T11:21:08.085Z,9.00
2023-01-05T11:23:39.691Z,9.00
2023-01-05T11:26:33.790Z,9.00
2023-01-05T11:29:04.772Z,9.00
2023-01-05T11:31:38.725Z,9.00
2023-01-05T11:34:27.990Z,9.10
2023-01-05T11:37:02.429Z,9.10
2023-01-05T11:39:36.556Z,9.10
2023-01-05T11:42:18.674Z,9.10
2023-01-05T11:44:52.130Z,9.00
2023-01-05T11:47:26.196Z,9.10
2023-01-05T11:50:15.765Z,9.10
2023-01-05T11:52:45.539Z,9.00
2023-01-05T11:55:35.299Z,9.10
2023-01-05T11:58:25.462Z,9.50
2023-01-05T12:01:19.781Z,9.90
2023-01-05T12:04:02.150Z,10.10
2023-01-05T12:06:47.114Z,10.60
2023-01-05T12:09:22.351Z,11.10
2023-01-05T12:11:59.290Z,11.40
2023-01-05T12:14:42.708Z,11.40
2023-01-05T12:17:14.991Z,11.30
2023-01-05T12:19:54.599Z,11.10
2023-01-05T12:22:45.223Z,10.80
2023-01-05T12:25:28.295Z,10.50
2023-01-05T12:28:29.364Z,10.30
2023-01-05T12:34:19.508Z,9.80
2023-01-05T12:37:03.226Z,9.70
2023-01-05T12:40:05.310Z,9.70
2023-01-05T12:42:44.315Z,9.80
2023-01-05T12:45:40.445Z,9.90
2023-01-05T12:48:13.552Z,9.80
2023-01-05T12:50:45.969Z,9.80
2023-01-05T12:53:23.430Z,9.80
2023-01-05T12:55:57.185Z,9.70
2023-01-05T12:58:30.535Z,9.70
2023-01-05T13:01:00.603Z,9.70
2023-01-05T13:03:34.457Z,9.60
2023-01-05T13:06:07.309Z,9.60
2023-01-05T13:08:39.639Z,9.60
2023-01-05T13:11:16.826Z,9.50
2023-01-05T13:13:48.815Z,9.40
2023-01-05T13:16:20.342Z,9.40
2023-01-05T13:18:53.113Z,9.40
2023-01-05T13:21:22.781Z,9.30
2023-01-05T13:23:56.736Z,9.20
2023-01-05T13:26:25.967Z,9.20
2023-01-05T13:28:56.575Z,9.10
2023-01-05T13:31:59.666Z,9.00
2023-01-05T13:34:47.567Z,8.90
2023-01-05T13:37:55.416Z,8.80
2023-01-05T13:40:52.577Z,8.70
2023-01-05T13:43:46.527Z,8.60
2023-01-05T13:46:52.825Z,8.50
2023-01-05T13:49:45.429Z,8.40
2023-01-05T13:52:26.708Z,8.30
2023-01-05T13:55:02.318Z,8.30
2023-01-05T13:57:36.309Z,8.30
2023-01-05T14:00:12.392Z,8.30
2023-01-05T14:02:44.130Z,8.30
2023-01-05T14:05:24.452Z,8.30
2023-01-05T14:07:52.995Z,8.30
2023-01-05T14:10:25.512Z,8.30
2023-01-05T14:12:55.593Z,8.40
2023-01-05T14:15:40.961Z,8.30
2023-01-05T14:18:10.433Z,8.30
2023-01-05T14:20:41.722Z,8.30
2023-01-05T14:23:47.150Z,8.30
2023-01-05T14:26:15.069Z,8.30
2023-01-05T14:28:49.169Z,8.30
2023-01-05T14:31:38.626Z,8.30
2023-01-05T14:34:13.683Z,8.30
2023-01-05T14:36:43.453Z,8.20
2023-01-05T14:39:25.640Z,8.20
2023-01-05T14:42:01.549Z,8.20
2023-01-05T14:44:34.032Z,8.20
2023-01-05T14:47:05.220Z,8.10
2023-01-05T14:49:36.595Z,8.20
2023-01-05T14:52:07.287Z,8.20
2023-01-05T14:55:24.221Z,8.10
2023-01-05T14:58:01.612Z,8.10
2023-01-05T15:00:38.604Z,8.10
2023-01-05T15:03:19.850Z,8.10
2023-01-05T15:06:00.038Z,8.20
2023-01-05T15:08:43.347Z,8.10
2023-01-05T15:11:29.629Z,8.10
2023-01-05T15:14:34.950Z,8.10
2023-01-05T15:17:32.132Z,8.10
2023-01-05T15:20:21.285Z,8.10
2023-01-05T15:23:06.629Z,8.10
2023-01-05T15:26:10.171Z,8.10
2023-01-05T15:29:16.392Z,8.10
2023-01-05T15:31:55.489Z,8.10
2023-01-05T15:34:41.829Z,8.10
2023-01-05T15:37:39.646Z,8.10
2023-01-05T15:40:28.801Z,8.10
2023-01-05T15:43:01.952Z,8.10
2023-01-05T15:45:42.079Z,8.10
2023-01-05T15:48:16.052Z,8.10
2023-01-05T15:50:46.991Z,8.10
2023-01-05T15:53:27.422Z,8.10
2023-01-05T15:55:56.322Z,8.00
2023-01-05T15:58:26.757Z,8.00
2023-01-05T16:01:05.816Z,8.00
2023-01-05T16:03:36.259Z,8.00
2023-01-05T16:06:07.262Z,8.00
2023-01-05T16:08:42.842Z,8.00
2023-01-05T16:11:14.516Z,8.00
2023-01-05T16:13:48.769Z,8.00
2023-01-05T16:16:50.605Z,8.00
2023-01-05T16:19:24.330Z,8.00
2023-01-05T16:21:59.123Z,8.00
2023-01-05T16:24:33.696Z,8.00
2023-01-05T16:27:04.323Z,8.00
2023-01-05T16:29:37.903Z,7.90
2023-01-05T16:32:27.733Z,8.00
2023-01-05T16:35:23.512Z,8.00
2023-01-05T16:38:16.073Z,7.90
2023-01-05T16:41:12.887Z,7.90
2023-01-05T16:43:47.949Z,8.00
2023-01-05T16:46:37.028Z,7.90
2023-01-05T16:49:53.545Z,7.90
2023-01-05T16:52:31.006Z,7.90
2023-01-05T16:55:28.423Z,7.90
2023-01-05T16:57:58.735Z,7.90
2023-01-05T17:00:38.362Z,7.90
2023-01-05T17:03:30.619Z,7.80
2023-01-05T17:06:00.206Z,7.80
2023-01-05T17:08:31.652Z,7.80
2023-01-05T17:11:01.335Z,7.70
2023-01-05T17:13:39.110Z,7.70
2023-01-05T17:16:07.917Z,7.70
2023-01-05T17:18:35.901Z,7.70
2023-01-05T17:21:05.729Z,7.60
2023-01-05T17:23:38.215Z,7.70
2023-01-05T17:26:09.536Z,7.60
2023-01-05T17:28:42.038Z,7.70
2023-01-05T17:31:11.175Z,7.70
2023-01-05T17:33:39.221Z,7.70
2023-01-05T17:36:08.309Z,7.70
2023-01-05T17:38:36.227Z,7.70
2023-01-05T17:41:04.232Z,7.80
2023-01-05T17:43:32.313Z,7.80
2023-01-05T17:46:01.692Z,7.80
2023-01-05T17:48:29.610Z,7.80
2023-01-05T17:50:57.530Z,7.80
2023-01-05T17:53:25.458Z,7.80
2023-01-05T17:55:53.500Z,7.90
2023-01-05T17:58:21.436Z,7.80
2023-01-05T18:00:49.761Z,7.90
2023-01-05T18:03:22.316Z,7.90
2023-01-05T18:05:52.280Z,7.90
2023-01-05T18:08:21.091Z,7.80
2023-01-05T18:10:49.220Z,7.90
2023-01-05T18:13:19.891Z,7.80
2023-01-05T18:15:52.671Z,7.80
2023-01-05T18:18:24.227Z,7.70
2023-01-05T18:20:52.769Z,7.70
2023-01-05T18:23:21.463Z,7.60
2023-01-05T18:25:49.449Z,7.50
2023-01-05T18:28:18.013Z,7.50
2023-01-05T18:30:46.335Z,7.50
2023-01-05T18:33:14.341Z,7.50
2023-01-05T18:35:44.096Z,7.50
2023-01-05T18:38:12.189Z,7.50
2023-01-05T18:40:40.216Z,7.50
2023-01-05T18:43:08.177Z,7.50
2023-01-05T18:45:40.087Z,7.50
2023-01-05T18:48:09.728Z,7.40
2023-01-05T18:50:41.142Z,7.40
2023-01-05T18:53:10.653Z,7.40
2023-01-05T18:55:42.067Z,7.40
2023-01-05T18:58:10.214Z,7.40
2023-01-05T19:00:40.158Z,7.40
2023-01-05T19:03:08.124Z,7.40
2023-01-05T19:05:40.727Z,7.40
2023-01-05T19:08:10.789Z,7.40
2023-01-05T19:10:39.505Z,7.30
2023-01-05T19:13:07.802Z,7.30
2023-01-05T19:15:36.488Z,7.20
2023-01-05T19:18:05.799Z,7.20
2023-01-05T19:20:33.906Z,7.20
2023-01-05T19:23:01.874Z,7.20
2023-01-05T19:25:31.727Z,7.20
2023-01-05T19:28:02.247Z,7.20
2023-01-05T19:30:31.131Z,7.20
2023-01-05T19:33:02.325Z,7.20
2023-01-05T19:35:32.721Z,7.20
2023-01-05T19:38:11.019Z,7.20
2023-01-05T19:40:40.404Z,7.20
2023-01-05T19:43:08.273Z,7.20
2023-01-05T19:45:43.400Z,7.20
2023-01-05T19:48:13.989Z,7.20
2023-01-05T19:50:41.871Z,7.20
2023-01-05T19:53:09.785Z,7.20
2023-01-05T19:55:40.663Z,7.20
2023-01-05T19:58:08.544Z,7.20
2023-01-05T20:00:36.573Z,7.20
2023-01-05T20:03:04.503Z,7.20
2023-01-05T20:05:32.422Z,7.20
2023-01-05T20:08:00.264Z,7.20
2023-01-05T20:10:28.165Z,7.20
2023-01-05T20:12:57.466Z,7.20
2023-01-05T20:15:25.405Z,7.20
2023-01-05T20:17:53.266Z,7.30
2023-01-05T20:20:21.141Z,7.20
2023-01-05T20:22:49.011Z,7.20
2023-01-05T20:25:17.113Z,7.30
2023-01-05T20:27:46.134Z,7.30
2023-01-05T20:30:16.008Z,7.20
2023-01-05T20:32:44.077Z,7.20
2023-01-05T20:35:14.043Z,7.20
2023-01-05T20:37:44.994Z,7.20
2023-01-05T20:40:13.225Z,7.20
2023-01-05T20:42:41.166Z,7.20
2023-01-05T20:45:09.349Z,7.20
2023-01-05T20:47:47.419Z,7.20
2023-01-05T20:50:16.244Z,7.20
2023-01-05T20:52:44.113Z,7.20
2023-01-05T20:55:12.093Z,7.20
2023-01-05T20:57:39.957Z,7.20
2023-01-05T21:00:09.090Z,7.20
2023-01-05T21:02:38.419Z,7.20
2023-01-05T21:05:07.100Z,7.10
2023-01-05T21:07:35.220Z,7.10
2023-01-05T21:10:03.214Z,7.10
2023-01-05T21:12:31.162Z,7.00
2023-01-05T21:14:59.148Z,7.00
2023-01-05T21:17:27.094Z,7.00
2023-01-05T21:19:57.752Z,6.90
2023-01-05T21:22:25.831Z,6.90
2023-01-05T21:24:53.794Z,6.80
2023-01-05T21:27:21.691Z,6.70
2023-01-05T21:29:50.266Z,6.70
2023-01-05T21:32:18.181Z,6.60
2023-01-05T21:34:46.159Z,6.60
2023-01-05T21:37:15.423Z,6.60
2023-01-05T21:39:43.361Z,6.50
2023-01-05T21:42:28.806Z,6.50
2023-01-05T21:44:56.748Z,6.50
2023-01-05T21:47:24.653Z,6.40
2023-01-05T21:49:52.561Z,6.40
2023-01-05T21:52:39.329Z,6.30
2023-01-05T21:55:26.888Z,6.30
2023-01-05T21:57:54.896Z,6.30
2023-01-05T22:00:23.235Z,6.30
2023-01-05T22:02:51.105Z,6.30
2023-01-05T22:05:19.009Z,6.20
2023-01-05T22:07:48.279Z,6.30
2023-01-05T22:10:16.638Z,6.20
2023-01-05T22:12:44.554Z,6.20
2023-01-05T22:15:13.145Z,6.20
2023-01-05T22:17:42.466Z,6.20
2023-01-05T22:20:13.721Z,6.20
2023-01-05T22:22:41.604Z,6.10
2023-01-05T22:25:11.324Z,6.10
2023-01-05T22:27:39.207Z,6.20
2023-01-05T22:30:08.730Z,6.20
2023-01-05T22:32:36.882Z,6.20
2023-01-05T22:35:05.744Z,6.10
2023-01-05T22:37:33.602Z,6.20
2023-01-05T22:40:01.578Z,6.10
2023-01-05T22:42:30.862Z,6.20
2023-01-05T22:44:58.873Z,6.30
2023-01-05T22:47:27.328Z,6.30
2023-01-05T22:49:55.323Z,6.30
2023-01-05T22:52:23.884Z,6.30
2023-01-05T22:54:51.913Z,6.40
2023-01-05T22:57:19.861Z,6.40
2023-01-05T22:59:49.129Z,6.40
2023-01-05T23:02:17.143Z,6.40
2023-01-05T23:04:45.118Z,6.50
2023-01-05T23:07:13.013Z,6.50
2023-01-05T23:09:41.372Z,6.50
2023-01-05T23:12:11.255Z,6.50
2023-01-05T23:14:39.808Z,6.60
2023-01-05T23:17:12.236Z,6.60
2023-01-05T23:19:40.386Z,6.50
2023-01-05T23:22:10.743Z,6.60
2023-01-05T23:24:39.359Z,6.60
2023-01-05T23:27:07.306Z,6.60
2023-01-05T23:29:35.559Z,6.60
2023-01-05T23:32:04.102Z,6.60
2023-01-05T23:34:33.521Z,6.70
2023-01-05T23:37:01.520Z,6.70
2023-01-05T23:39:29.712Z,6.70
2023-01-05T23:41:57.819Z,6.80
2023-01-05T23:44:25.872Z,6.80
2023-01-05T23:46:54.911Z,6.80
2023-01-05T23:49:27.605Z,6.80
2023-01-05T23:52:00.146Z,6.80
2023-01-05T23:54:28.307Z,6.90
2023-01-05T23:56:58.498Z,6.80
2023-01-05T23:59:26.924Z,6.80
